Big Pine Key, Florida
Current Conditions -  °F | °C
As of 11:53 PM on Sunday 19 Oct 2014 (Local Time) from KMTH Reporting Station
Clear Clear  
Wind Chill: 79°   Ceiling: Unl
Heat Index: 81°   Visibility: 10mi
Dew Point: 68°   Wind: 6mph
Humidity: 69%   Direction: 90°E
Pressure: 29.99"   Gusts: NA
Location:  24.67°N, 81.35°W
Report Text: KMTH 200353Z AUTO 09005KT 10SM CLR 26/20 A2999 RMK AO2 SLP156 T02610200
Loading
Personal Weather Stations






























Interactive Weather Map
Tropical Storm Tracking
New forecast layout! Learn more

10-Day Weather Forecast

Advertisements
Track Severe Weather on mobile